createdAt,value
2023-03-22T00:00:19.796Z,6.59
2023-03-22T00:11:19.731Z,6.77
2023-03-22T00:16:25.206Z,7.02
2023-03-22T00:21:31.137Z,7.14
2023-03-22T00:26:35.160Z,7.01
2023-03-22T00:31:39.158Z,7.07
2023-03-22T00:36:44.526Z,7.21
2023-03-22T00:41:48.455Z,7.33
2023-03-22T00:46:52.377Z,7.24
2023-03-22T00:51:57.711Z,7.19
2023-03-22T00:57:03.086Z,7.28
2023-03-22T01:02:08.380Z,7.10
2023-03-22T01:12:46.857Z,7.15
2023-03-22T01:17:50.849Z,7.11
2023-03-22T01:22:56.407Z,7.10
2023-03-22T01:28:02.799Z,7.14
2023-03-22T01:33:07.733Z,7.14
2023-03-22T01:38:13.119Z,7.19
2023-03-22T01:43:27.985Z,7.19
2023-03-22T01:48:36.570Z,7.26
2023-03-22T01:53:46.109Z,7.08
2023-03-22T01:58:51.226Z,6.95
2023-03-22T02:04:07.230Z,6.84
2023-03-22T02:09:16.787Z,6.93
2023-03-22T02:14:38.625Z,6.84
2023-03-22T02:20:28.316Z,6.94
2023-03-22T02:26:08.395Z,6.79
2023-03-22T02:31:40.902Z,6.98
2023-03-22T02:37:20.585Z,6.94
2023-03-22T02:42:42.382Z,7.08
2023-03-22T02:47:55.763Z,7.27
2023-03-22T02:53:05.818Z,7.00
2023-03-22T02:58:16.530Z,6.90
2023-03-22T03:03:25.638Z,7.10
2023-03-22T03:08:31.345Z,7.05
2023-03-22T03:13:39.542Z,7.04
2023-03-22T03:18:49.178Z,6.98
2023-03-22T03:23:59.742Z,6.98
2023-03-22T03:29:11.266Z,6.92
2023-03-22T03:34:23.371Z,7.22
2023-03-22T03:39:31.851Z,7.19
2023-03-22T03:44:38.319Z,7.14
2023-03-22T03:49:42.519Z,7.17
2023-03-22T03:54:46.583Z,7.17
2023-03-22T03:59:57.438Z,7.16
2023-03-22T04:05:18.450Z,7.25
2023-03-22T04:10:24.387Z,6.96
2023-03-22T04:15:31.404Z,6.94
2023-03-22T04:20:39.511Z,6.91
2023-03-22T04:25:50.169Z,6.82
2023-03-22T04:31:04.101Z,6.86
2023-03-22T04:36:23.015Z,6.79
2023-03-22T04:41:49.192Z,6.74
2023-03-22T04:46:56.098Z,6.94
2023-03-22T04:52:00.474Z,6.98
2023-03-22T04:57:12.506Z,7.05
2023-03-22T05:02:22.806Z,7.22
2023-03-22T05:07:28.106Z,7.09
2023-03-22T05:12:38.547Z,7.07
2023-03-22T05:18:02.763Z,6.92
2023-03-22T05:23:06.836Z,7.04
2023-03-22T05:28:11.162Z,7.10
2023-03-22T05:33:26.581Z,7.06
2023-03-22T05:44:02.218Z,7.00
2023-03-22T05:49:08.777Z,7.23
2023-03-22T05:54:14.306Z,7.43
2023-03-22T05:59:28.615Z,7.32
2023-03-22T06:04:34.194Z,7.43
2023-03-22T06:15:15.574Z,7.39
2023-03-22T06:20:40.976Z,7.58
2023-03-22T06:25:51.981Z,7.56
2023-03-22T06:30:56.873Z,7.75
2023-03-22T06:36:28.638Z,7.62
2023-03-22T06:41:53.088Z,7.88
2023-03-22T06:46:57.985Z,7.89
2023-03-22T06:52:18.521Z,7.72
2023-03-22T06:57:23.079Z,7.93
2023-03-22T07:02:27.145Z,7.78
2023-03-22T07:08:04.716Z,7.89
2023-03-22T07:13:09.511Z,7.99
2023-03-22T07:18:15.426Z,8.01
2023-03-22T07:23:21.452Z,7.94
2023-03-22T07:28:29.349Z,7.63
2023-03-22T07:33:37.232Z,7.93
2023-03-22T07:38:45.920Z,8.00
2023-03-22T07:44:04.803Z,7.86
2023-03-22T07:49:20.111Z,7.79
2023-03-22T07:54:41.872Z,7.57
2023-03-22T07:59:46.352Z,7.72
2023-03-22T08:04:55.736Z,7.90
2023-03-22T08:10:22.096Z,7.73
2023-03-22T08:15:26.386Z,7.68
2023-03-22T08:20:30.462Z,7.65
2023-03-22T08:25:40.443Z,7.70
2023-03-22T08:30:49.512Z,7.56
2023-03-22T08:35:53.640Z,7.45
2023-03-22T08:40:59.274Z,7.16
2023-03-22T08:46:03.505Z,7.02
2023-03-22T08:51:08.387Z,7.24
2023-03-22T08:56:32.502Z,7.15
2023-03-22T09:02:02.442Z,7.34
2023-03-22T09:07:06.917Z,7.71
2023-03-22T09:12:13.236Z,7.58
2023-03-22T09:17:21.281Z,7.65
2023-03-22T09:42:31.068Z,8.01
2023-03-22T09:47:46.675Z,7.93
2023-03-22T09:52:51.249Z,8.14
2023-03-22T09:58:05.969Z,8.42
2023-03-22T10:03:24.513Z,8.23
2023-03-22T10:08:37.911Z,8.30
2023-03-22T10:13:52.119Z,8.52
2023-03-22T10:19:03.488Z,8.78
2023-03-22T10:24:16.692Z,8.86
2023-03-22T10:29:30.575Z,8.64
2023-03-22T10:34:34.671Z,8.43
2023-03-22T10:39:42.162Z,8.80
2023-03-22T10:44:49.865Z,8.56
2023-03-22T10:49:57.316Z,9.03
2023-03-22T10:55:04.487Z,9.15
2023-03-22T11:00:17.538Z,9.19
2023-03-22T11:05:24.698Z,9.45
2023-03-22T11:10:32.879Z,9.19
2023-03-22T11:15:42.598Z,8.85
2023-03-22T11:20:58.187Z,8.79
2023-03-22T11:26:09.224Z,8.76
2023-03-22T11:31:17.059Z,8.54
2023-03-22T11:36:21.154Z,8.83
2023-03-22T11:41:27.396Z,9.30
2023-03-22T11:46:34.643Z,9.44
2023-03-22T11:51:40.682Z,9.21
2023-03-22T11:56:48.532Z,9.55
2023-03-22T12:01:59.511Z,9.58
2023-03-22T12:07:11.366Z,9.39
2023-03-22T12:12:19.215Z,9.27
2023-03-22T12:17:33.579Z,9.26
2023-03-22T12:22:43.591Z,9.22
2023-03-22T12:27:50.982Z,9.31
2023-03-22T12:33:00.680Z,9.14
2023-03-22T12:38:28.215Z,8.94
2023-03-22T12:43:46.902Z,8.64
2023-03-22T12:48:54.523Z,8.29
2023-03-22T12:54:01.199Z,8.32
2023-03-22T12:59:09.397Z,8.60
2023-03-22T13:04:33.099Z,8.78
2023-03-22T13:09:41.601Z,9.02
2023-03-22T13:14:57.820Z,8.91
2023-03-22T13:20:27.960Z,8.87
2023-03-22T13:25:35.994Z,8.74
2023-03-22T13:30:50.528Z,8.56
2023-03-22T13:35:59.183Z,8.52
2023-03-22T13:41:09.298Z,8.73
2023-03-22T13:46:45.702Z,8.91
2023-03-22T13:51:52.443Z,8.74
2023-03-22T13:57:00.589Z,8.83
2023-03-22T14:02:13.610Z,8.84
2023-03-22T14:07:25.346Z,9.02
2023-03-22T14:12:36.633Z,9.17
2023-03-22T14:17:45.430Z,8.78
